Time;durP1;ratioP1;P1;durP2;ratioP2;P2;SDS_P1;SDS_P2;PMS_P1;PMS_P2;Temp;Humidity;BMP_temperature;BMP_pressure;BME280_temperature;BME280_humidity;BME280_pressure;Samples;Min_cycle;Max_cycle;Signal;HPM_P1;HPM_P2
2021/08/22 05:01:16;;;;;;;12.65;5.10;;;18.50;92.00;;;;;;5546151;23;20484;-85
2021/08/22 05:03:42;;;;;;;12.77;5.13;;;18.60;92.10;;;;;;4899170;29;20072;-85
2021/08/22 05:06:11;;;;;;;10.70;5.22;;;18.70;92.20;;;;;;4884348;29;20544;-86
2021/08/22 05:08:37;;;;;;;11.13;6.07;;;18.80;92.10;;;;;;4884452;29;20020;-85
2021/08/22 05:11:04;;;;;;;14.40;6.40;;;18.90;92.00;;;;;;4900268;29;20088;-85
2021/08/22 05:13:37;;;;;;;13.07;5.72;;;18.90;91.70;;;;;;4900295;29;20040;-85
2021/08/22 05:16:06;;;;;;;14.20;5.85;;;18.80;91.60;;;;;;4900399;29;20040;-85
2021/08/22 05:18:32;;;;;;;14.55;6.38;;;18.70;91.80;;;;;;4884524;29;20503;-85
2021/08/22 05:20:58;;;;;;;12.38;6.40;;;18.70;91.70;;;;;;4900190;29;20039;-85
2021/08/22 05:23:27;;;;;;;11.65;5.18;;;18.70;91.80;;;;;;4900309;29;20468;-85
2021/08/22 05:25:52;;;;;;;16.15;6.35;;;18.70;91.80;;;;;;4899949;29;20024;-85
2021/08/22 05:28:21;;;;;;;15.60;5.57;;;18.80;91.90;;;;;;4916717;29;20032;-86
2021/08/22 05:30:46;;;;;;;15.02;6.30;;;18.70;91.90;;;;;;4900223;29;20182;-83
2021/08/22 05:33:12;;;;;;;12.90;6.50;;;18.80;92.10;;;;;;4917045;29;20108;-83
2021/08/22 05:35:38;;;;;;;16.02;6.20;;;18.90;92.30;;;;;;4899987;29;20079;-84
2021/08/22 05:38:06;;;;;;;12.45;5.57;;;19.10;92.20;;;;;;4916941;29;20429;-84
2021/08/22 05:40:32;;;;;;;12.63;5.53;;;19.20;92.20;;;;;;4916618;29;20035;-84
2021/08/22 05:42:57;;;;;;;15.77;5.82;;;19.40;92.20;;;;;;4884638;29;20123;-84
2021/08/22 05:45:26;;;;;;;11.77;5.22;;;19.40;92.10;;;;;;4916877;29;20044;-84
2021/08/22 05:47:52;;;;;;;15.35;5.78;;;19.50;92.00;;;;;;4918614;29;20476;-83
2021/08/22 05:50:18;;;;;;;12.52;5.60;;;19.60;91.90;;;;;;4904295;29;20039;-83
2021/08/22 05:52:44;;;;;;;13.00;5.70;;;19.60;92.20;;;;;;4904207;29;20032;-83
2021/08/22 05:55:11;;;;;;;12.65;5.72;;;19.60;91.90;;;;;;4903187;29;20063;-85
2021/08/22 05:57:37;;;;;;;11.32;5.75;;;19.80;91.80;;;;;;4899788;29;20466;-84
2021/08/22 06:00:05;;;;;;;13.90;5.53;;;19.70;91.70;;;;;;4884331;29;20055;-86
2021/08/22 06:02:31;;;;;;;10.52;4.70;;;19.70;91.70;;;;;;4899363;29;20500;-84
2021/08/22 06:04:57;;;;;;;12.38;5.60;;;19.80;91.80;;;;;;4899061;29;20036;-84
2021/08/22 06:07:23;;;;;;;13.93;5.53;;;19.80;91.40;;;;;;4899807;29;20051;-84
2021/08/22 06:09:50;;;;;;;13.52;6.15;;;19.70;91.40;;;;;;4899782;29;20024;-85
2021/08/22 06:26:29;;;;;;;10.32;5.15;;;19.60;91.70;;;;;;4733059;30;20061;-81
2021/08/22 06:28:55;;;;;;;11.27;4.93;;;19.70;92.00;;;;;;4778588;29;20050;-82
2021/08/22 06:31:21;;;;;;;14.68;5.40;;;19.80;92.20;;;;;;4808417;29;20031;-81
2021/08/22 06:33:47;;;;;;;11.73;5.97;;;19.90;92.10;;;;;;4863382;29;20103;-82
2021/08/22 06:36:12;;;;;;;11.07;4.60;;;20.00;92.10;;;;;;4918929;29;20021;-81
2021/08/22 06:38:39;;;;;;;10.35;4.78;;;20.20;92.30;;;;;;4919278;29;20062;-83
2021/08/22 06:41:05;;;;;;;11.15;4.88;;;20.40;92.30;;;;;;4902632;29;20436;-86
2021/08/22 06:43:33;;;;;;;9.88;4.82;;;20.50;92.00;;;;;;4901753;29;20028;-84
2021/08/22 06:46:09;;;;;;;9.73;4.13;;;20.70;91.80;;;;;;4886061;29;20036;-84
2021/08/22 06:48:35;;;;;;;7.93;3.50;;;20.90;91.80;;;;;;4902344;29;20039;-85
2021/08/22 06:51:05;;;;;;;10.32;3.97;;;20.90;91.40;;;;;;4886739;29;20084;-85
2021/08/22 06:53:31;;;;;;;12.15;4.03;;;20.90;91.20;;;;;;4894742;29;20029;-84
2021/08/22 06:56:12;;;;;;;12.82;5.22;;;21.00;91.30;;;;;;4901617;29;20060;-85
2021/08/22 06:58:41;;;;;;;12.60;4.90;;;21.10;91.10;;;;;;4902054;29;20028;-84
2021/08/22 07:01:07;;;;;;;11.60;5.18;;;21.10;91.20;;;;;;4903654;29;20044;-84
2021/08/22 07:03:33;;;;;;;9.75;5.15;;;21.20;91.10;;;;;;4886490;29;20517;-84
2021/08/22 07:05:58;;;;;;;27.77;19.52;;;21.20;90.90;;;;;;4902102;29;20032;-85
2021/08/22 07:08:32;;;;;;;11.23;5.10;;;21.20;91.20;;;;;;4901771;29;20028;-86
2021/08/22 07:11:04;;;;;;;10.38;4.60;;;21.40;91.20;;;;;;4901488;29;20036;-85
2021/08/22 07:13:33;;;;;;;10.25;4.95;;;21.60;91.20;;;;;;4901726;29;20035;-85
2021/08/22 07:16:01;;;;;;;9.13;3.55;;;21.80;91.20;;;;;;4907090;29;20028;-85
2021/08/22 07:18:33;;;;;;;8.63;4.15;;;22.10;91.10;;;;;;4888210;29;20125;-85
2021/08/22 07:21:07;;;;;;;9.23;3.95;;;22.10;90.50;;;;;;4894035;29;20035;-86
2021/08/22 07:23:35;;;;;;;7.00;3.08;;;22.10;90.40;;;;;;4900857;29;20040;-86
2021/08/22 07:26:04;;;;;;;6.63;3.10;;;22.20;90.40;;;;;;4885678;29;20035;-84
2021/08/22 07:28:30;;;;;;;6.95;2.83;;;22.20;90.40;;;;;;4918389;29;20060;-85
2021/08/22 07:30:56;;;;;;;7.80;4.00;;;22.20;90.30;;;;;;4901947;29;20123;-84
2021/08/22 07:33:28;;;;;;;7.43;3.63;;;22.10;90.30;;;;;;4918501;29;20028;-84
2021/08/22 07:36:05;;;;;;;7.95;3.90;;;22.30;90.70;;;;;;4901298;29;20040;-84
2021/08/22 07:38:32;;;;;;;8.45;3.90;;;22.40;90.70;;;;;;4901683;29;20030;-84
2021/08/22 07:40:58;;;;;;;13.10;7.28;;;22.40;90.90;;;;;;4901591;29;20032;-85
2021/08/22 07:43:26;;;;;;;8.73;4.20;;;22.60;91.00;;;;;;4918369;29;20032;-85
2021/08/22 07:45:52;;;;;;;7.47;3.40;;;22.80;90.80;;;;;;4900473;29;20043;-85
2021/08/22 07:48:18;;;;;;;7.95;3.05;;;22.70;90.40;;;;;;4901422;29;20040;-84
2021/08/22 07:50:43;;;;;;;6.47;3.00;;;22.60;90.20;;;;;;4917833;29;20028;-84
2021/08/22 07:53:09;;;;;;;6.38;3.00;;;22.50;90.10;;;;;;4918292;29;20068;-84
2021/08/22 07:55:36;;;;;;;8.30;3.20;;;22.40;90.30;;;;;;4901508;29;20055;-84
2021/08/22 07:58:05;;;;;;;7.40;3.00;;;22.30;90.40;;;;;;4901102;29;20504;-84
2021/08/22 08:00:31;;;;;;;6.65;3.20;;;22.30;90.70;;;;;;4902149;29;20377;-84
2021/08/22 08:02:57;;;;;;;7.15;3.20;;;22.40;91.20;;;;;;4885276;29;20039;-84
2021/08/22 08:05:22;;;;;;;6.28;2.90;;;22.70;91.70;;;;;;4901257;29;20450;-87
2021/08/22 08:07:48;;;;;;;6.72;2.90;;;23.10;91.50;;;;;;4900574;29;20040;-84
2021/08/22 08:10:17;;;;;;;6.18;2.90;;;23.40;91.40;;;;;;4901045;29;20024;-84
2021/08/22 08:12:46;;;;;;;6.60;3.15;;;23.60;91.20;;;;;;4884760;29;20044;-83
2021/08/22 08:15:12;;;;;;;6.53;2.70;;;23.80;90.80;;;;;;4901206;29;20028;-84
2021/08/22 08:17:39;;;;;;;5.53;2.60;;;23.80;90.40;;;;;;4901368;29;20032;-84
2021/08/22 08:20:05;;;;;;;6.38;2.90;;;23.70;90.00;;;;;;4911537;29;20035;-83
2021/08/22 08:22:31;;;;;;;6.22;3.20;;;23.50;89.70;;;;;;4919969;29;20503;-83
2021/08/22 08:24:57;;;;;;;5.93;3.00;;;23.20;89.90;;;;;;4936957;29;20032;-84
2021/08/22 08:27:23;;;;;;;5.72;2.90;;;23.00;90.40;;;;;;4916228;29;20459;-84
2021/08/22 08:29:51;;;;;;;5.10;2.75;;;22.90;91.00;;;;;;4890857;29;20036;-84
2021/08/22 08:32:17;;;;;;;6.20;2.85;;;23.10;91.60;;;;;;4900612;29;20064;-83
2021/08/22 08:34:43;;;;;;;7.43;3.03;;;23.30;91.60;;;;;;4917288;29;20027;-85
2021/08/22 08:37:08;;;;;;;5.57;2.70;;;23.50;91.40;;;;;;4900806;29;20043;-82
2021/08/22 08:39:36;;;;;;;6.28;3.08;;;23.50;91.50;;;;;;4901128;29;20028;-82
2021/08/22 08:42:36;;;;;;;5.85;2.83;;;23.60;91.20;;;;;;4901179;29;20028;-83
2021/08/22 08:45:10;;;;;;;6.25;2.88;;;23.70;91.50;;;;;;4886655;29;20068;-82
2021/08/22 08:47:37;;;;;;;6.05;2.75;;;23.90;91.30;;;;;;4900409;29;20036;-83
2021/08/22 08:50:32;;;;;;;6.38;3.00;;;23.90;90.90;;;;;;4900664;29;20028;-83
2021/08/22 08:53:07;;;;;;;6.57;3.25;;;23.80;90.60;;;;;;4900132;29;20028;-83
2021/08/22 08:55:48;;;;;;;;;;;23.70;90.80;;;;;;4900703;29;20036;-83
2021/08/22 08:58:17;;;;;;;8.63;3.30;;;23.60;90.90;;;;;;4900458;29;19907;-83
2021/08/22 09:00:47;;;;;;;6.00;3.17;;;23.50;90.50;;;;;;4902642;29;20130;-84
2021/08/22 09:03:19;;;;;;;7.75;3.20;;;23.30;90.60;;;;;;4901948;29;20191;-82
2021/08/22 09:09:37;;;;;;;7.38;3.40;;;23.20;91.10;;;;;;4878092;29;20104;-83
2021/08/22 09:12:44;;;;;;;8.57;3.53;;;23.30;91.50;;;;;;4884234;29;20025;-82
2021/08/22 09:15:48;;;;;;;6.43;3.08;;;23.60;91.90;;;;;;4883949;29;20032;-83
2021/08/22 09:18:56;;;;;;;7.95;3.40;;;24.00;91.90;;;;;;4883527;29;20024;-82
2021/08/22 09:22:09;;;;;;;8.00;3.60;;;24.40;91.50;;;;;;4883246;29;20033;-83
2021/08/22 09:25:20;;;;;;;7.57;3.72;;;24.60;90.70;;;;;;4884939;29;20033;-82
2021/08/22 09:28:27;;;;;;;8.10;3.45;;;24.80;90.90;;;;;;4879985;29;20063;-83
2021/08/22 09:31:18;;;;;;;7.35;3.40;;;25.00;90.70;;;;;;4884353;29;20056;-83
2021/08/22 09:34:06;;;;;;;7.38;3.30;;;25.00;90.20;;;;;;4900849;29;20024;-83
2021/08/22 09:36:31;;;;;;;7.45;3.45;;;25.00;90.20;;;;;;4875199;29;20029;-82
2021/08/22 09:39:30;;;;;;;7.72;3.50;;;24.90;89.80;;;;;;4873707;29;20031;-82
2021/08/22 09:42:08;;;;;;;6.75;3.25;;;24.70;89.40;;;;;;4899243;29;20077;-82
2021/08/22 09:45:11;;;;;;;8.10;3.45;;;24.50;89.00;;;;;;4882868;29;20025;-83
2021/08/22 09:48:14;;;;;;;8.25;3.33;;;24.30;88.80;;;;;;4885894;29;20068;-81
2021/08/22 09:51:02;;;;;;;7.90;3.60;;;24.00;89.40;;;;;;4886403;29;20446;-82
2021/08/22 09:53:54;;;;;;;8.20;3.58;;;23.70;89.30;;;;;;4886478;29;20024;-82
2021/08/22 09:56:40;;;;;;;8.27;3.78;;;23.50;89.70;;;;;;4887272;29;20025;-83
2021/08/22 09:59:25;;;;;;;9.00;3.75;;;23.20;89.50;;;;;;4904269;29;20032;-83
2021/08/22 10:02:12;;;;;;;;;;;23.00;89.80;;;;;;4915838;29;20131;-83
2021/08/22 10:04:59;;;;;;;8.93;4.20;;;22.90;89.60;;;;;;4920045;29;19908;-84
2021/08/22 10:07:31;;;;;;;12.13;5.45;;;22.80;89.60;;;;;;4903327;29;20047;-84
2021/08/22 10:10:27;;;;;;;10.40;4.70;;;22.60;88.00;;;;;;4902950;29;20432;-83
2021/08/22 10:12:55;;;;;;;9.35;4.95;;;22.50;88.50;;;;;;4897889;29;20040;-85
2021/08/22 10:15:22;;;;;;;9.73;4.70;;;22.70;90.20;;;;;;4887800;29;20034;-84
2021/08/22 10:17:48;;;;;;;10.70;4.63;;;23.00;90.50;;;;;;4920322;29;20080;-84
2021/08/22 10:20:15;;;;;;;9.65;4.15;;;23.30;90.90;;;;;;4904124;29;20028;-85
2021/08/22 10:22:44;;;;;;;8.05;4.03;;;23.90;91.10;;;;;;4906036;29;20421;-86
2021/08/22 10:25:12;;;;;;;9.02;3.85;;;24.30;90.60;;;;;;4924939;29;20020;-84
2021/08/22 10:27:42;;;;;;;8.48;3.97;;;24.70;89.20;;;;;;4907330;29;20457;-84
2021/08/22 10:30:20;;;;;;;8.50;3.58;;;25.00;88.40;;;;;;4902468;29;20036;-84
2021/08/22 10:32:59;;;;;;;8.52;4.13;;;25.40;87.80;;;;;;4919913;29;20473;-84
2021/08/22 10:35:30;;;;;;;10.40;3.97;;;25.60;86.20;;;;;;4919556;29;20027;-82
2021/08/22 10:38:16;;;;;;;8.82;3.78;;;25.80;86.10;;;;;;4902877;29;20055;-82
2021/08/22 10:40:42;;;;;;;7.97;3.47;;;26.00;85.60;;;;;;4902353;29;20020;-82
2021/08/22 10:43:10;;;;;;;8.00;3.90;;;26.20;85.30;;;;;;4902737;29;20032;-82
2021/08/22 10:45:46;;;;;;;8.65;3.90;;;26.30;83.90;;;;;;4902627;29;20388;-82
2021/08/22 10:48:32;;;;;;;8.88;4.20;;;26.20;83.50;;;;;;4902128;29;20040;-82
2021/08/22 10:51:02;;;;;;;8.45;4.00;;;26.20;84.20;;;;;;4919034;29;20024;-83
2021/08/22 10:53:31;;;;;;;8.25;3.90;;;26.50;85.10;;;;;;4902509;29;20032;-82
2021/08/22 10:55:58;;;;;;;7.28;3.47;;;26.80;84.70;;;;;;4902435;29;20058;-82
2021/08/22 10:59:03;;;;;;;8.73;4.15;;;27.00;83.70;;;;;;4901449;29;20477;-84
2021/08/22 11:01:30;;;;;;;10.25;4.22;;;27.10;82.60;;;;;;4901895;29;20040;-83
2021/08/22 11:04:19;;;;;;;8.77;3.78;;;27.20;81.90;;;;;;4902203;29;20508;-83
2021/08/22 11:06:54;;;;;;;8.55;4.22;;;27.10;80.70;;;;;;4901852;29;20480;-82
2021/08/22 11:09:45;;;;;;;8.10;3.58;;;26.90;80.50;;;;;;4901918;29;20036;-82
2021/08/22 11:12:26;;;;;;;8.25;4.00;;;26.80;80.50;;;;;;4902222;29;20035;-82
2021/08/22 11:14:52;;;;;;;7.05;3.47;;;26.50;80.50;;;;;;4918642;29;20032;-83
2021/08/22 11:17:21;;;;;;;7.18;3.90;;;26.10;80.70;;;;;;4902187;29;20376;-82
2021/08/22 11:19:50;;;;;;;7.20;3.28;;;25.90;82.00;;;;;;4901840;29;20043;-82
2021/08/22 11:22:29;;;;;;;8.82;3.80;;;25.60;82.80;;;;;;4918444;29;20031;-82
2021/08/22 11:24:58;;;;;;;9.07;3.60;;;25.40;82.90;;;;;;4901841;29;20033;-83
2021/08/22 11:27:31;;;;;;;9.98;4.22;;;25.10;82.90;;;;;;4901862;29;20422;-83
2021/08/22 11:30:13;;;;;;;8.52;3.90;;;25.00;83.70;;;;;;4918557;29;20075;-83
2021/08/22 11:32:49;;;;;;;8.65;4.10;;;24.80;83.80;;;;;;4918536;29;20491;-83
2021/08/22 11:35:21;;;;;;;8.75;4.22;;;24.70;83.70;;;;;;4901563;29;20028;-83
2021/08/22 11:37:50;;;;;;;8.88;4.43;;;24.40;82.90;;;;;;4918348;29;20032;-83
2021/08/22 11:40:19;;;;;;;8.82;4.18;;;24.30;84.30;;;;;;4901450;29;20025;-83
2021/08/22 11:42:56;;;;;;;8.65;4.50;;;24.50;86.00;;;;;;4918408;29;20127;-83
2021/08/22 11:45:25;;;;;;;8.68;4.00;;;24.90;86.60;;;;;;4918112;29;20048;-83
2021/08/22 11:47:51;;;;;;;9.27;4.35;;;25.40;87.20;;;;;;4918284;29;20036;-83
2021/08/22 11:50:21;;;;;;;8.07;3.80;;;25.90;86.70;;;;;;4918524;29;20357;-83
2021/08/22 11:52:53;;;;;;;7.75;4.15;;;26.30;84.80;;;;;;4901293;29;20028;-83
2021/08/22 11:55:19;;;;;;;8.40;3.88;;;26.60;83.30;;;;;;4901954;29;20050;-82
2021/08/22 11:57:45;;;;;;;8.02;4.00;;;26.80;83.30;;;;;;4918330;29;20028;-83
2021/08/22 12:00:13;;;;;;;9.07;3.88;;;26.90;82.00;;;;;;4900968;29;20032;-83
2021/08/22 12:03:00;;;;;;;7.57;3.88;;;26.90;82.40;;;;;;4901131;29;20059;-83
2021/08/22 12:05:33;;;;;;;6.85;3.35;;;27.00;82.00;;;;;;4901399;29;20032;-83
2021/08/22 12:08:12;;;;;;;9.68;4.30;;;27.00;82.50;;;;;;4918092;29;20064;-83
2021/08/22 12:10:39;;;;;;;9.07;4.45;;;27.10;82.20;;;;;;4917025;29;20024;-83
2021/08/22 12:13:17;;;;;;;9.02;4.35;;;27.20;82.10;;;;;;4901010;29;20028;-83
2021/08/22 12:15:43;;;;;;;9.15;4.65;;;27.30;81.70;;;;;;4918040;29;20028;-83
2021/08/22 12:18:21;;;;;;;8.95;4.47;;;27.40;81.00;;;;;;4918663;29;20056;-83
2021/08/22 12:21:12;;;;;;;9.32;4.70;;;27.40;80.30;;;;;;4901197;29;20032;-84
2021/08/22 12:23:38;;;;;;;9.45;4.85;;;27.40;80.10;;;;;;4900442;29;20036;-83
2021/08/22 12:26:29;;;;;;;7.78;3.90;;;27.60;81.20;;;;;;4918163;29;20024;-83
2021/08/22 12:28:56;;;;;;;8.55;4.10;;;27.80;80.90;;;;;;4900613;29;20141;-83
2021/08/22 12:31:37;;;;;;;8.70;4.25;;;28.00;81.40;;;;;;4900861;29;20076;-83
2021/08/22 12:34:07;;;;;;;5.65;3.25;;;28.10;80.50;;;;;;4917723;29;20030;-83
2021/08/22 12:36:46;;;;;;;8.43;4.45;;;28.00;80.00;;;;;;4917697;29;20039;-83
2021/08/22 12:39:15;;;;;;;9.90;4.60;;;27.80;80.30;;;;;;4900323;29;20476;-83
2021/08/22 12:41:51;;;;;;;8.40;4.22;;;27.60;78.80;;;;;;4917737;29;20409;-83
2021/08/22 12:44:25;;;;;;;9.80;4.63;;;27.10;78.50;;;;;;4900235;29;20028;-83
2021/08/22 12:47:00;;;;;;;13.57;5.72;;;26.50;78.10;;;;;;4917259;29;20056;-87
2021/08/22 12:49:26;;;;;;;12.57;6.45;;;25.80;76.30;;;;;;4900321;29;20062;-84
2021/08/22 12:51:57;;;;;;;14.20;6.53;;;25.10;76.60;;;;;;4900215;29;20095;-85
2021/08/22 12:54:25;;;;;;;16.48;6.63;;;24.70;79.00;;;;;;4917234;29;20116;-83
2021/08/22 12:56:51;;;;;;;10.43;5.68;;;24.20;80.60;;;;;;4917388;29;20028;-85
2021/08/22 12:59:21;;;;;;;10.73;5.20;;;24.10;81.80;;;;;;4899952;29;20445;-85
2021/08/22 13:01:50;;;;;;;11.52;5.30;;;24.00;83.20;;;;;;4900269;29;20052;-85
2021/08/22 13:04:20;;;;;;;12.77;5.72;;;23.90;82.70;;;;;;4900443;29;20024;-85
2021/08/22 13:06:49;;;;;;;10.43;3.97;;;23.70;82.50;;;;;;4917765;29;20075;-91
2021/08/22 13:09:21;;;;;;;14.93;5.00;;;23.40;81.90;;;;;;4899900;29;20035;-87
2021/08/22 13:11:47;;;;;;;13.48;4.05;;;22.90;79.50;;;;;;4900191;29;20489;-86
2021/08/22 13:14:13;;;;;;;15.50;5.50;;;22.50;81.20;;;;;;4900401;29;20032;-88
2021/08/22 13:16:39;;;;;;;11.57;4.93;;;22.30;83.40;;;;;;4884531;29;20032;-87
2021/08/22 13:19:13;;;;;;;13.18;4.40;;;22.20;86.00;;;;;;4899973;29;20032;-85
2021/08/22 13:21:39;;;;;;;12.77;4.45;;;22.10;86.60;;;;;;4902083;29;20385;-85
2021/08/22 13:24:07;;;;;;;8.38;3.42;;;22.00;87.70;;;;;;4904208;29;20038;-84
2021/08/22 13:26:33;;;;;;;10.85;3.67;;;22.20;88.60;;;;;;4904148;29;20107;-84
2021/08/22 13:28:58;;;;;;;10.55;3.58;;;22.30;88.10;;;;;;4903937;29;20068;-84
2021/08/22 13:31:25;;;;;;;9.52;3.70;;;22.40;88.00;;;;;;4903894;29;20449;-83
2021/08/22 13:33:55;;;;;;;8.05;3.40;;;22.30;87.60;;;;;;4904095;29;20111;-83
2021/08/22 13:36:22;;;;;;;9.20;3.85;;;22.30;88.60;;;;;;4920900;29;20016;-83
2021/08/22 13:38:47;;;;;;;9.10;3.53;;;22.40;88.90;;;;;;4903620;29;20500;-83
2021/08/22 13:41:13;;;;;;;16.42;11.20;;;22.40;88.50;;;;;;4887767;29;20043;-85
2021/08/22 13:43:39;;;;;;;8.00;3.97;;;22.50;88.40;;;;;;4903920;29;20028;-83
2021/08/22 13:46:04;;;;;;;6.53;3.00;;;22.80;89.40;;;;;;4903529;29;20044;-83
2021/08/22 13:48:30;;;;;;;6.55;3.00;;;23.10;89.80;;;;;;4903554;29;20577;-83
2021/08/22 13:50:55;;;;;;;6.70;3.10;;;23.30;89.30;;;;;;4903196;29;20091;-83
2021/08/22 13:53:21;;;;;;;6.85;2.83;;;23.60;90.00;;;;;;4903814;29;20028;-84
2021/08/22 13:55:49;;;;;;;6.07;2.78;;;24.00;89.80;;;;;;4920419;29;20028;-83
2021/08/22 13:58:15;;;;;;;7.18;3.20;;;24.20;88.10;;;;;;4903353;29;20119;-83
2021/08/22 14:00:41;;;;;;;5.93;2.60;;;24.40;87.40;;;;;;4903294;29;20131;-85
2021/08/22 14:03:07;;;;;;;4.57;2.60;;;24.60;87.90;;;;;;4903829;29;20071;-85
2021/08/22 14:05:35;;;;;;;5.85;2.63;;;24.80;87.80;;;;;;4907029;29;20028;-83
2021/08/22 14:08:04;;;;;;;6.45;2.80;;;25.20;87.80;;;;;;4890670;29;20044;-82
2021/08/22 14:10:33;;;;;;;6.70;2.80;;;25.70;88.40;;;;;;4921915;29;20028;-83
2021/08/22 14:12:59;;;;;;;6.50;3.17;;;26.10;86.70;;;;;;4905758;29;20039;-83
2021/08/22 14:15:26;;;;;;;6.03;2.72;;;26.10;85.30;;;;;;4904985;29;20388;-83
2021/08/22 14:17:55;;;;;;;8.30;4.60;;;26.30;86.20;;;;;;4905334;29;20024;-82
2021/08/22 14:20:21;;;;;;;8.70;4.18;;;26.40;85.20;;;;;;4905937;29;20047;-82
2021/08/22 14:22:50;;;;;;;6.57;3.13;;;26.30;84.60;;;;;;4905062;29;20043;-82
2021/08/22 14:25:19;;;;;;;6.10;2.90;;;26.10;83.80;;;;;;4922519;29;20024;-83
2021/08/22 14:27:50;;;;;;;6.65;3.05;;;25.80;83.80;;;;;;4921971;29;20123;-83
2021/08/22 14:30:16;;;;;;;6.10;3.13;;;25.60;85.50;;;;;;4905642;29;20051;-84
2021/08/22 14:32:45;;;;;;;6.90;3.30;;;25.80;86.30;;;;;;4903139;29;20020;-82
2021/08/22 14:35:11;;;;;;;8.90;3.38;;;25.80;85.30;;;;;;4905532;29;20028;-83
2021/08/22 14:37:37;;;;;;;7.03;3.42;;;25.80;85.40;;;;;;4905596;29;20039;-83
2021/08/22 14:40:06;;;;;;;7.85;4.03;;;25.60;85.30;;;;;;4903315;29;20020;-83
2021/08/22 14:42:35;;;;;;;7.97;3.65;;;25.30;84.80;;;;;;4904564;29;20075;-82
2021/08/22 14:45:02;;;;;;;10.43;4.93;;;25.10;85.10;;;;;;4905136;29;20123;-84
2021/08/22 14:47:30;;;;;;;8.48;4.13;;;24.80;85.60;;;;;;4904672;29;20540;-82
2021/08/22 14:49:56;;;;;;;9.13;4.50;;;24.70;86.10;;;;;;4921340;29;20024;-82
2021/08/22 14:52:24;;;;;;;8.25;4.13;;;24.30;86.20;;;;;;4905064;29;20091;-84
2021/08/22 14:54:50;;;;;;;7.78;4.10;;;24.20;87.50;;;;;;4920698;29;20044;-83
2021/08/22 14:57:18;;;;;;;8.70;4.22;;;24.00;88.70;;;;;;4907100;29;20035;-85
2021/08/22 14:59:46;;;;;;;10.68;4.70;;;24.10;89.00;;;;;;4937925;29;20020;-84
2021/08/22 15:02:12;;;;;;;9.38;4.80;;;24.10;89.20;;;;;;4896777;29;20056;-84
2021/08/22 15:04:39;;;;;;;8.60;4.22;;;24.10;90.00;;;;;;4894187;29;20076;-83
2021/08/22 15:07:07;;;;;;;8.95;3.83;;;24.10;90.20;;;;;;4908739;29;20139;-82
2021/08/22 15:09:35;;;;;;;8.80;4.22;;;24.20;90.30;;;;;;4904040;29;20028;-82
2021/08/22 15:12:01;;;;;;;9.35;4.32;;;24.30;90.50;;;;;;4901390;29;20052;-82
2021/08/22 15:14:26;;;;;;;7.97;3.80;;;24.30;90.50;;;;;;4901318;29;20063;-82
2021/08/22 15:16:52;;;;;;;8.55;3.97;;;24.30;90.60;;;;;;4901519;29;20036;-82
2021/08/22 15:19:18;;;;;;;8.38;3.90;;;24.20;90.50;;;;;;4902085;29;20029;-84
2021/08/22 15:21:43;;;;;;;8.43;4.03;;;24.20;90.60;;;;;;4916702;29;20028;-83
2021/08/22 15:24:10;;;;;;;9.02;3.83;;;24.10;90.40;;;;;;4900433;29;20114;-83
2021/08/22 15:26:36;;;;;;;7.85;3.50;;;24.00;90.60;;;;;;4900237;29;20048;-83
2021/08/22 15:29:01;;;;;;;8.60;3.90;;;24.00;90.90;;;;;;4917080;29;20028;-83
2021/08/22 15:31:27;;;;;;;9.07;5.13;;;24.10;91.10;;;;;;4915477;29;20029;-83
2021/08/22 15:33:58;;;;;;;8.55;3.70;;;24.20;91.10;;;;;;4917067;29;20039;-82
2021/08/22 15:36:24;;;;;;;7.95;3.33;;;24.10;90.80;;;;;;4901057;29;20024;-83
2021/08/22 15:38:50;;;;;;;7.47;3.75;;;24.00;90.90;;;;;;4901591;29;20092;-83
2021/08/22 15:41:15;;;;;;;9.18;3.50;;;24.10;91.10;;;;;;4900389;29;20037;-82
2021/08/22 15:43:41;;;;;;;7.13;3.22;;;24.30;91.40;;;;;;4901036;29;20084;-83
2021/08/22 15:46:09;;;;;;;7.10;3.47;;;24.50;91.40;;;;;;4899808;29;20123;-83
2021/08/22 15:48:35;;;;;;;7.05;3.35;;;24.70;91.30;;;;;;4899122;29;20036;-83
2021/08/22 15:51:03;;;;;;;7.00;3.38;;;24.80;90.80;;;;;;4898449;29;20076;-83
2021/08/22 15:53:29;;;;;;;7.78;3.97;;;24.80;91.00;;;;;;4898242;29;20033;-83
2021/08/22 15:55:55;;;;;;;7.03;3.38;;;25.00;91.30;;;;;;4882507;29;20035;-83
2021/08/22 15:58:20;;;;;;;7.88;3.20;;;25.10;90.80;;;;;;4899594;29;20434;-83
2021/08/22 16:00:46;;;;;;;7.78;3.80;;;24.80;90.10;;;;;;4898062;29;20535;-83
2021/08/22 16:03:12;;;;;;;8.63;4.10;;;24.50;89.70;;;;;;4898043;29;20039;-83
2021/08/22 16:05:38;;;;;;;8.43;3.30;;;24.40;90.30;;;;;;4898114;29;20120;-83
2021/08/22 16:08:04;;;;;;;8.15;3.90;;;24.40;90.60;;;;;;4898973;29;20044;-83
2021/08/22 16:10:33;;;;;;;7.88;3.65;;;24.50;91.00;;;;;;4898941;29;20037;-83
2021/08/22 16:13:01;;;;;;;7.72;3.60;;;24.60;91.00;;;;;;4913615;29;20436;-83
2021/08/22 16:15:30;;;;;;;6.13;2.90;;;24.70;90.70;;;;;;4898797;29;20048;-83
2021/08/22 16:17:55;;;;;;;8.43;3.42;;;24.60;90.10;;;;;;4898974;29;20231;-83
2021/08/22 16:20:22;;;;;;;6.57;3.33;;;24.30;89.40;;;;;;4913399;29;20076;-83
2021/08/22 16:22:47;;;;;;;6.60;3.03;;;23.90;89.30;;;;;;4897884;29;20393;-83
2021/08/22 16:25:13;;;;;;;7.28;3.20;;;23.70;89.90;;;;;;4898975;29;20028;-83
2021/08/22 16:27:39;;;;;;;7.28;2.92;;;23.50;90.20;;;;;;4898927;29;20381;-83
2021/08/22 16:30:05;;;;;;;6.95;3.20;;;23.30;90.50;;;;;;4897538;29;20024;-83
2021/08/22 16:32:31;;;;;;;7.10;2.85;;;23.20;90.70;;;;;;4897824;29;20099;-83
2021/08/22 16:34:57;;;;;;;4.45;2.40;;;23.10;90.60;;;;;;4912939;29;20032;-83
2021/08/22 16:37:23;;;;;;;6.97;3.15;;;23.00;90.60;;;;;;4898578;29;20055;-83
2021/08/22 16:39:49;;;;;;;6.80;3.25;;;23.00;90.80;;;;;;4882317;29;20384;-83
2021/08/22 16:42:15;;;;;;;6.90;2.75;;;23.10;91.30;;;;;;4898692;29;20036;-83
2021/08/22 16:44:40;;;;;;;4.93;2.42;;;23.30;91.40;;;;;;4898386;29;20028;-83
2021/08/22 16:47:06;;;;;;;6.03;3.00;;;23.30;90.90;;;;;;4881948;29;20040;-83
2021/08/22 16:49:32;;;;;;;7.07;3.10;;;23.20;90.50;;;;;;4897623;29;20104;-83
2021/08/22 16:51:58;;;;;;;7.07;3.22;;;23.10;90.50;;;;;;4897293;29;20488;-83
2021/08/22 16:54:24;;;;;;;8.20;3.00;;;22.80;90.40;;;;;;4898130;29;20029;-83
2021/08/22 16:56:49;;;;;;;6.95;3.05;;;22.60;90.50;;;;;;4897891;29;20021;-84
2021/08/22 16:59:15;;;;;;;4.38;2.30;;;22.30;90.70;;;;;;4897096;29;20036;-84
2021/08/22 17:01:41;;;;;;;5.38;2.33;;;22.10;90.80;;;;;;4897001;29;20139;-84
2021/08/22 17:04:10;;;;;;;2.60;1.67;;;21.90;90.70;;;;;;4898599;29;20032;-84
2021/08/22 17:06:38;;;;;;;2.28;1.42;;;21.60;90.30;;;;;;4897355;29;20478;-84
2021/08/22 17:09:04;;;;;;;1.48;1.35;;;21.30;89.80;;;;;;4897213;29;20080;-84
2021/08/22 17:11:29;;;;;;;2.10;1.35;;;21.00;89.50;;;;;;4898579;29;20040;-84
2021/08/22 17:13:58;;;;;;;2.00;1.52;;;20.80;90.30;;;;;;4898434;29;20489;-84
2021/08/22 17:16:23;;;;;;;1.35;1.23;;;20.50;90.40;;;;;;4881529;29;20039;-84
2021/08/22 17:18:49;;;;;;;2.05;1.38;;;20.40;90.60;;;;;;4896934;29;20389;-84
2021/08/22 17:21:15;;;;;;;3.25;1.52;;;20.20;90.70;;;;;;4896144;29;20031;-84
2021/08/22 17:23:40;;;;;;;2.15;1.33;;;20.00;90.90;;;;;;4898431;29;20039;-84
2021/08/22 17:26:06;;;;;;;1.88;1.08;;;19.90;90.90;;;;;;4897182;29;20028;-86
2021/08/22 17:28:32;;;;;;;2.15;1.40;;;19.80;90.80;;;;;;4896868;29;20072;-82
2021/08/22 17:30:58;;;;;;;3.13;1.63;;;19.60;90.90;;;;;;4896795;29;20441;-85
2021/08/22 17:33:23;;;;;;;2.13;1.50;;;19.50;91.00;;;;;;4896630;29;20071;-85
2021/08/22 17:35:52;;;;;;;2.10;1.30;;;19.30;91.10;;;;;;4897656;29;20029;-88
2021/08/22 17:38:26;;;;;;;2.30;1.23;;;19.30;91.20;;;;;;4898011;29;20187;-86
2021/08/22 17:40:58;;;;;;;2.88;1.50;;;19.10;91.00;;;;;;4882989;29;20028;-86
2021/08/22 17:43:25;;;;;;;1.50;1.13;;;19.00;90.80;;;;;;4894672;29;20552;-86
2021/08/22 17:45:56;;;;;;;2.65;1.48;;;18.80;90.60;;;;;;4882195;29;20037;-85
2021/08/22 17:48:49;;;;;;;3.05;1.40;;;18.70;90.70;;;;;;4882538;29;20036;-86
2021/08/22 17:51:48;;;;;;;1.70;1.27;;;18.50;90.70;;;;;;4865025;29;20547;-91
2021/08/22 17:54:14;;;;;;;1.98;1.40;;;18.40;90.80;;;;;;4900606;29;20141;-84
2021/08/22 17:56:50;;;;;;;;;;;;;;;;;;;;;
2021/08/22 17:59:26;;;;;;;;;;;;;;;;;;;;;
2021/08/22 18:02:35;;;;;;;4.35;2.28;;;18.20;91.00;;;;;;4915778;29;20044;-88
2021/08/22 18:05:39;;;;;;;3.83;1.60;;;18.10;91.10;;;;;;4897488;29;20042;-90
2021/08/22 18:08:05;;;;;;;3.58;1.75;;;18.10;91.40;;;;;;4900626;29;20040;-86
2021/08/22 18:10:32;;;;;;;2.83;1.45;;;18.10;91.60;;;;;;4887271;29;20071;-86
2021/08/22 18:13:04;;;;;;;10.05;5.82;;;18.10;91.50;;;;;;4886519;29;20085;-85
2021/08/22 18:15:31;;;;;;;11.55;6.95;;;18.10;91.50;;;;;;4873895;29;20028;-89
2021/08/22 18:18:00;;;;;;;8.93;4.68;;;18.20;91.60;;;;;;4892192;29;20068;-86
2021/08/22 18:20:26;;;;;;;5.00;2.40;;;18.10;91.60;;;;;;4887938;29;20028;-88
2021/08/22 18:22:56;;;;;;;2.95;1.67;;;18.10;91.50;;;;;;4886950;29;20024;-87
2021/08/22 18:25:27;;;;;;;4.47;1.90;;;18.10;91.50;;;;;;4888033;29;20064;-87